Onde está Sobralinho en Portugal?

 

Sobralinho está situado na região Lisboa em Portugal!

Buscar o nome de uma cidade:

Sobrusan, Sobral da Abilheira, Sobrepenilla, Sobrino, Sobrena

Aqui você vai encontrar a localização de Sobralinho em um mapa.
Para ver como ele atualmente parece, abaixo estão algumas fotos da região, com webcams online.
Você também pode encontrar a distância para as principais cidades da região e de cidades do resto do Portugal.

Cidades do mundo
Cidades em Portugal que também são encontradas em outros países do mundo.


Onde está Sobralinho no mapa?




Webcams perto Sobralinho

Parque das Nacoes › South: Rua Vasco da Gama.


Parque das Nacoes › South: Rua Vasco da Gama - Dia
Actual
Parque das Nacoes › South: Rua Vasco da Gama - Actual

Lisbon › North: Ponte Vasco da Gama.


Lisbon › North: Ponte Vasco da Gama - Dia
Actual
Lisbon › North: Ponte Vasco da Gama - Actual

Benavente › North-East: Santarém - AIrport, METAR: BENAV 180005Z 36004KT 17/14 Q1015.


Benavente › North-East: Santarém - AIrport, METAR: BENAV 180005Z 36004KT 17/14 Q1015 - Dia
Actual
Benavente › North-East: Santarém - AIrport, METAR: BENAV 180005Z 36004KT 17/14 Q1015 - Actual

Webcams provided by webcams.travel


Distâncias

Onde está Sobralinho em relação a outros lugares?

Top 10 cidades em Lisboa e distância de Sobralinho.

Cidade#Populaçãokmmilhas
Lisbon15177982415
Amadora21788562616
Queluz31033982717
Loures4662301610
Rio de Mouro5546953119
Odivelas6546231912
São Domingos de Rana7467173522
Cascais8364364226
Alcabideche9333153924
Póvoa de Santa Iria102890064

Top 10 cidades em Portugal e distância de Sobralinho.

Cidade # Populaçãokmmilhas
Lisbon15177982415
Porto2249630251156
Amadora31788562616
Braga4121393298185
Setúbal51171094327
Coimbra610658015395
Queluz71033982717
Funchal898041996619
Vila Nova de Gaia970810249155
Loures10662301610



Info

Estatística e Geografia

Portugal é composta de 15299 cidades em 20 regiões.

A região de Lisboa tem 1032 cidades.

Sobralinho é o número 61 na região Lisboa.

A cidade é o número 372 na Portugal.

A população é de 4458.

Onde está Sobralinho en Portugal?